• Join FlightAware (Why Join?)
  • Login
  • US Flag 
09:41PM EDT


 

Airport Tracker/Info


-or-


 

Live Flight TrackerFlight Track Log ✈ UAL4550 ✈ 03-May-2013 ✈ KMCI - KIAH

Flight Track Log - Related Links

Times and Time Zones

All times are in EDT time to prevent confusion due to time zone crossing. See the UAL4550 flight status page for this flight to view local times or setup timezone preferences in your user account.

Time Position Orientation Groundspeed Altitude Reporting Facility
EDT Latitude Longitude Course Direction KTS MPH feet Rate Location/Type
05:52PM 39.3167 -94.7167 180° South 154 177 1,700  Level Kansas City TRACON
05:53PM 39.3333 -94.7167 360° North 159 183 2,500 2,220 Climbing Kansas City TRACON
05:54PM 39.3714 -94.7533 323° Northwest 208 239 4,500 1,920 Climbing Kansas City Center
05:55PM 39.3192 -94.8092 220° Southwest 277 319 6,400 2,580 Climbing Kansas City Center
05:56PM 38.9375 -94.8431 195° South  Level FlightAware Approximate
05:56PM 39.2317 -94.8431 197° South 296 341 9,900  Level Kansas City Center
05:57PM 38.8465 -94.8812 199° South  Level FlightAware Approximate
05:57PM 39.1508 -94.8567 187° South 304 350 11,100  Level Kansas City Center
05:58PM 38.7553 -94.9167 180° South  Level FlightAware Approximate
05:58PM 39.0403 -94.8772 188° South 356 410 12,700  Level Kansas City Center
05:59PM 38.9442 -94.8942 188° South 361 415 14,600 1,920 Climbing Kansas City Center
06:00PM 38.8311 -94.9147 188° South 365 420 16,700 1,740 Climbing Kansas City Center
06:01PM 38.7353 -94.9319 188° South 363 418 18,300 1,740 Climbing Kansas City Center
06:02PM 38.6278 -94.9689 195° South 356 410 20,400 1,740 Climbing Kansas City Center
06:03PM 38.5353 -95.0011 195° South 358 412 21,900 1,380 Climbing Kansas City Center
06:04PM 38.4425 -95.0342 196° South 360 414 23,300 1,500 Climbing Kansas City Center
06:05PM 38.3339 -95.0711 195° South 360 414 25,100 1,620 Climbing Kansas City Center
06:06PM 38.2422 -95.1028 195° South 358 412 26,700 1,680 Climbing Kansas City Center
06:07PM 38.1389 -95.1392 195° South 345 397 28,600 1,620 Climbing Kansas City Center
06:08PM 38.0533 -95.1686 195° South 335 386 30,100 1,380 Climbing Kansas City Center
06:09PM 37.9544 -95.2011 195° South 330 380 31,500 1,140 Climbing Kansas City Center
06:10PM 37.8622 -95.2322 195° South 334 384 32,500 960 Climbing Kansas City Center
06:11PM 37.7681 -95.2639 195° South 347 399 33,500 960 Climbing Kansas City Center
06:12PM 37.6739 -95.2989 196° South 351 404 34,500 900 Climbing Kansas City Center
06:13PM 37.5778 -95.3094 185° South 348 400 35,400 720 Climbing Kansas City Center
06:14PM 37.4819 -95.3114 181° South 343 395 36,000 240 Climbing Kansas City Center
06:15PM 37.3606 -95.3150 181° South 360 414 36,000  Level Kansas City Center
06:16PM 37.2525 -95.3164 181° South 381 438 36,000  Level Kansas City Center
06:17PM 37.1389 -95.3192 181° South 400 460 36,000  Level Kansas City Center
06:19PM 37.0206 -95.3328 185° South 420 483 36,000  Level Kansas City Center
06:20PM 36.9044 -95.3836 199° South 438 504 36,000  Level Kansas City Center
06:21PM 36.7842 -95.4303 197° South 448 516 36,000  Level Kansas City Center
06:22PM 36.6406 -95.4872 198° South 452 520 36,000  Level Kansas City Center
06:23PM 36.5356 -95.5297 198° South 449 517 36,000  Level Kansas City Center
06:24PM 36.4172 -95.5761 198° South 446 513 36,000  Level Kansas City Center
06:25PM 36.2728 -95.6333 198° South 452 520 36,000  Level Kansas City Center
06:26PM 36.1519 -95.6803 197° South 454 522 36,000  Level Kansas City Center
06:27PM 36.0258 -95.7294 198° South 455 524 36,000  Level Kansas City Center
06:28PM 35.9053 -95.7769 198° South 454 522 36,000  Level Kansas City Center
06:29PM 35.7847 -95.8222 197° South 453 521 36,000  Level Kansas City Center
06:30PM 35.6653 -95.8692 198° South 450 518 36,000  Level Kansas City Center
06:31PM 35.5453 -95.9161 198° South 459 528 36,000  Level Fort Worth Center
06:32PM 35.4269 -95.9614 197° South 454 522 36,000  Level Fort Worth Center
06:33PM 35.3067 -96.0069 197° South 454 522 36,000  Level Fort Worth Center
06:34PM 35.1883 -96.0519 197° South 454 522 36,000  Level Fort Worth Center
06:35PM 35.0678 -96.0969 197° South 454 522 36,000  Level Fort Worth Center
06:36PM 34.9472 -96.1444 198° South 459 528 36,000  Level Fort Worth Center
06:37PM 34.8225 -96.1919 197° South 464 534 36,000  Level Fort Worth Center
06:38PM 34.7000 -96.2392 198° South 464 534 36,000  Level Fort Worth Center
06:39PM 34.5814 -96.2836 197° South 458 527 36,000  Level Fort Worth Center
06:40PM 34.4586 -96.3281 197° South 458 527 36,000  Level Fort Worth Center
06:41PM 34.3361 -96.3747 197° South 463 533 36,000  Level Fort Worth Center
06:42PM 34.2133 -96.4214 197° South 463 533 36,000  Level Fort Worth Center
06:43PM 34.0947 -96.4656 197° South 463 533 36,000  Level Fort Worth Center
06:44PM 33.9739 -96.5094 197° South 463 533 36,000  Level Fort Worth Center
06:45PM 33.8553 -96.5556 198° South 463 533 36,000  Level Fort Worth Center
06:46PM 33.7386 -96.5967 196° South 445 512 36,000  Level Fort Worth Center
06:47PM 33.6283 -96.6375 197° South 445 512 36,000  Level Fort Worth Center
06:48PM 33.4992 -96.6861 197° South 450 518 36,000  Level Fort Worth Center
06:49PM 33.3889 -96.7242 196° South 450 518 36,000  Level Fort Worth Center
06:50PM 33.2597 -96.7725 197° South 455 524 36,000  Level Fort Worth Center
06:51PM 33.1533 -96.8131 198° South 455 524 36,000  Level Fort Worth Center
06:52PM 33.0222 -96.8608 197° South 455 524 36,000  Level Fort Worth Center
06:53PM 32.9011 -96.8939 193° South 449 517 36,000  Level Fort Worth Center
06:54PM 32.7822 -96.8722 171° South 468 539 36,000  Level Fort Worth Center
06:55PM 32.6525 -96.8386 168° South 480 552 36,000  Level Fort Worth Center
06:56PM 32.5083 -96.7950 166° South 490 564 36,000  Level Fort Worth Center
06:57PM 32.3869 -96.7614 167° South 490 564 36,000  Level Fort Worth Center
06:58PM 32.2447 -96.7208 166° South 483 556 36,000  Level Fort Worth Center
06:59PM 32.1131 -96.6800 165° South 483 556 36,000  Level Fort Worth Center
07:00PM 31.9833 -96.6442 167° South 488 562 36,000 -60 Level Fort Worth Center
07:01PM 31.8494 -96.6064 167° South 488 562 35,900 -1,440 Descending Fort Worth Center
07:02PM 31.6325 -96.5461 167° South 488 562 32,200 -1,860 Descending Houston Center
07:03PM 31.4972 -96.5067 166° South 492 566 31,000 -1,260 Descending Houston Center
07:05PM 31.3633 -96.4542 161° South 496 571 29,600 -1,440 Descending Houston Center
07:06PM 31.2289 -96.4053 163° South 498 573 28,100 -1,500 Descending Houston Center
07:07PM 31.0908 -96.3528 162° South 509 586 26,600 -2,100 Descending Houston Center
07:08PM 30.9625 -96.2747 152° Southeast 516 594 23,800 -2,880 Descending Houston Center
07:09PM 30.8508 -96.1867 146° Southeast 487 560 20,700 -2,760 Descending Houston Center
07:10PM 30.7458 -96.0994 144° Southeast 467 537 18,200 -2,520 Descending Houston Center
07:11PM 30.6311 -96.0053 145° Southeast 451 519 15,500 -2,280 Descending Houston Center
07:12PM 30.5325 -95.9247 145° Southeast 436 502 13,500 -2,100 Descending Houston Center
07:12PM 30.4936 -95.8947 146° Southeast 428 493 12,700 -1,680 Descending Houston Center
07:13PM 30.4378 -95.8464 143° Southeast 424 488 11,800 -1,500 Descending Houston Center
07:13PM 30.4022 -95.8083 137° Southeast 416 479 11,200 -1,260 Descending Houston Center
07:14PM 30.3519 -95.7589 140° Southeast 415 478 10,500 -900 Descending Houston Center
07:14PM 30.3192 -95.7236 137° Southeast 364 419 10,300 -720 Descending Houston Center
07:15PM 30.2806 -95.6822 137° Southeast 368 423 9,800 -1,200 Descending Houston Center
07:15PM 30.2522 -95.6542 139° Southeast 321 369 9,100 -1,560 Descending Houston Center
07:16PM 30.2008 -95.5997 138° Southeast 326 375 8,200 -1,260 Descending Houston Center
07:17PM 30.1364 -95.5319 138° Southeast 316 364 6,900 -1,020 Descending Houston Center
07:18PM 30.1064 -95.4347 110° East 263 303 6,000 -420 Descending Houston Center
07:19PM 30.1064 -95.3406 90° East 279 321 6,000  Level Houston Center
07:20PM 30.1061 -95.2772 90° East 274 315 6,000 -780 Level Houston Center
07:21PM 30.0992 -95.1722 94° East 240 276 4,500 -1,500 Descending Houston Center
07:22PM 30.0586 -95.1675 174° South 244 281 3,000 -1,740 Descending Houston Center